createdAt,value
2023-03-26T00:02:08.403Z,9.40
2023-03-26T00:04:36.878Z,9.30
2023-03-26T00:07:05.574Z,9.20
2023-03-26T00:09:33.902Z,9.10
2023-03-26T00:12:02.328Z,9.10
2023-03-26T00:14:30.776Z,9.10
2023-03-26T00:16:59.769Z,9.00
2023-03-26T00:19:30.182Z,9.00
2023-03-26T00:21:59.174Z,9.00
2023-03-26T00:24:29.692Z,8.90
2023-03-26T00:26:59.732Z,8.90
2023-03-26T00:29:28.919Z,8.90
2023-03-26T00:31:58.016Z,8.90
2023-03-26T00:34:26.995Z,8.90
2023-03-26T00:37:02.529Z,8.90
2023-03-26T00:39:35.869Z,8.90
2023-03-26T00:42:07.246Z,9.00
2023-03-26T00:44:35.859Z,9.00
2023-03-26T00:47:04.717Z,8.90
2023-03-26T00:49:33.208Z,8.90
2023-03-26T00:52:03.853Z,8.90
2023-03-26T00:54:32.278Z,8.80
2023-03-26T00:57:00.732Z,8.80
2023-03-26T00:59:30.535Z,8.80
2023-03-26T01:02:01.081Z,8.80
2023-03-26T01:04:32.193Z,8.80
2023-03-26T01:07:05.830Z,8.80
2023-03-26T01:09:37.948Z,8.80
2023-03-26T01:12:09.824Z,8.80
2023-03-26T01:14:39.781Z,8.80
2023-03-26T01:17:09.220Z,8.80
2023-03-26T01:19:45.867Z,8.80
2023-03-26T01:22:17.985Z,8.80
2023-03-26T01:24:53.294Z,8.80
2023-03-26T01:27:29.076Z,8.80
2023-03-26T01:30:01.424Z,8.80
2023-03-26T01:32:44.149Z,8.80
2023-03-26T01:35:27.639Z,8.80
2023-03-26T01:38:11.790Z,8.80
2023-03-26T01:40:49.626Z,8.80
2023-03-26T01:43:26.736Z,8.80
2023-03-26T01:45:57.167Z,8.80
2023-03-26T01:48:32.542Z,8.80
2023-03-26T01:51:00.931Z,8.80
2023-03-26T01:53:29.755Z,8.80
2023-03-26T01:56:10.905Z,8.80
2023-03-26T01:58:49.891Z,8.70
2023-03-26T02:01:27.872Z,8.70
2023-03-26T02:04:03.539Z,8.70
2023-03-26T02:06:38.816Z,8.70
2023-03-26T02:09:10.087Z,8.60
2023-03-26T02:11:42.107Z,8.60
2023-03-26T02:14:11.193Z,8.60
2023-03-26T02:16:39.734Z,8.50
2023-03-26T02:19:15.614Z,8.50
2023-03-26T02:21:45.921Z,8.50
2023-03-26T02:24:15.023Z,8.50
2023-03-26T02:26:44.927Z,8.50
2023-03-26T02:29:14.051Z,8.50
2023-03-26T02:31:45.260Z,8.40
2023-03-26T02:34:13.959Z,8.40
2023-03-26T02:36:48.920Z,8.40
2023-03-26T02:39:20.924Z,8.40
2023-03-26T02:42:04.980Z,8.40
2023-03-26T02:44:40.295Z,8.40
2023-03-26T02:47:15.079Z,8.40
2023-03-26T02:50:09.060Z,8.40
2023-03-26T02:52:59.828Z,8.40
2023-03-26T02:55:29.738Z,8.40
2023-03-26T02:58:04.090Z,8.40
2023-03-26T03:00:38.764Z,8.40
2023-03-26T03:03:26.833Z,8.40
2023-03-26T03:05:59.119Z,8.40
2023-03-26T03:08:35.263Z,8.40
2023-03-26T03:11:24.625Z,8.40
2023-03-26T03:13:55.409Z,8.40
2023-03-26T03:16:26.875Z,8.40
2023-03-26T03:18:58.702Z,8.30
2023-03-26T03:21:37.762Z,8.40
2023-03-26T03:24:07.279Z,8.30
2023-03-26T03:26:39.081Z,8.30
2023-03-26T03:29:20.426Z,8.30
2023-03-26T03:31:49.524Z,8.30
2023-03-26T03:34:32.331Z,8.30
2023-03-26T03:37:00.727Z,8.30
2023-03-26T03:39:38.370Z,8.30
2023-03-26T03:42:07.036Z,8.30
2023-03-26T03:44:37.607Z,8.30
2023-03-26T03:47:13.992Z,8.30
2023-03-26T03:49:42.836Z,8.30
2023-03-26T03:52:11.560Z,8.30
2023-03-26T03:54:43.299Z,8.40
2023-03-26T03:57:22.024Z,8.40
2023-03-26T04:00:22.699Z,8.40
2023-03-26T04:03:10.199Z,8.40
2023-03-26T04:05:38.890Z,8.40
2023-03-26T04:08:07.637Z,8.40
2023-03-26T04:10:56.742Z,8.40
2023-03-26T04:13:45.796Z,8.40
2023-03-26T04:16:27.589Z,8.40
2023-03-26T04:18:58.505Z,8.40
2023-03-26T04:21:30.274Z,8.40
2023-03-26T04:24:02.862Z,8.40
2023-03-26T04:26:55.062Z,8.40
2023-03-26T04:29:43.028Z,8.40
2023-03-26T04:32:24.802Z,8.40
2023-03-26T04:34:54.151Z,8.40
2023-03-26T04:37:32.378Z,8.40
2023-03-26T04:40:10.491Z,8.40
2023-03-26T04:42:46.441Z,8.40
2023-03-26T04:45:27.492Z,8.40
2023-03-26T04:48:00.308Z,8.40
2023-03-26T04:50:29.256Z,8.40
2023-03-26T04:52:58.562Z,8.40
2023-03-26T04:55:50.554Z,8.40
2023-03-26T04:58:34.155Z,8.40
2023-03-26T05:01:10.216Z,8.30
2023-03-26T05:03:45.861Z,8.30
2023-03-26T05:06:17.784Z,8.30
2023-03-26T05:08:46.767Z,8.30
2023-03-26T05:11:30.852Z,8.30
2023-03-26T05:14:00.038Z,8.30
2023-03-26T05:16:29.692Z,8.30
2023-03-26T05:19:04.740Z,8.30
2023-03-26T05:21:36.353Z,8.20
2023-03-26T05:24:05.633Z,8.30
2023-03-26T05:26:34.439Z,8.20
2023-03-26T05:29:03.622Z,8.20
2023-03-26T05:31:37.913Z,8.20
2023-03-26T05:34:07.878Z,8.20
2023-03-26T05:36:36.863Z,8.20
2023-03-26T05:39:14.269Z,8.20
2023-03-26T05:42:01.263Z,8.10
2023-03-26T05:44:40.569Z,8.10
2023-03-26T07:44:18.997Z,8.80
2023-03-26T08:01:17.326Z,9.10
2023-03-26T08:04:25.646Z,9.00
2023-03-26T08:20:07.652Z,8.50
2023-03-26T08:22:41.189Z,8.40
2023-03-26T08:25:28.099Z,8.40
2023-03-26T08:31:23.374Z,8.50
2023-03-26T08:33:52.304Z,8.60
2023-03-26T08:36:22.299Z,8.90
2023-03-26T08:38:52.501Z,9.30
2023-03-26T08:41:55.615Z,9.60
2023-03-26T08:45:25.928Z,9.50
2023-03-26T08:54:48.610Z,8.90
2023-03-26T08:57:35.929Z,8.70
2023-03-26T09:00:50.878Z,8.50
2023-03-26T09:03:38.569Z,8.40
2023-03-26T09:06:29.837Z,8.40
2023-03-26T09:09:38.753Z,8.40
2023-03-26T09:12:58.582Z,8.40
2023-03-26T09:15:53.423Z,8.40
2023-03-26T09:19:01.659Z,8.40
2023-03-26T09:22:28.407Z,8.30
2023-03-26T09:25:42.341Z,8.30
2023-03-26T09:28:35.250Z,8.20
2023-03-26T09:31:48.945Z,8.20
2023-03-26T09:34:31.082Z,8.20
2023-03-26T09:37:18.365Z,8.20
2023-03-26T09:40:02.680Z,8.10
2023-03-26T09:42:44.489Z,8.20
2023-03-26T09:45:41.538Z,8.20
2023-03-26T09:48:47.589Z,8.10
2023-03-26T09:51:34.497Z,8.20
2023-03-26T09:54:20.453Z,8.20
2023-03-26T09:56:59.480Z,8.30
2023-03-26T09:59:55.087Z,8.40
2023-03-26T10:02:46.614Z,8.40
2023-03-26T10:05:45.799Z,8.40
2023-03-26T10:08:33.001Z,8.40
2023-03-26T10:11:10.226Z,8.50
2023-03-26T10:13:54.001Z,8.70
2023-03-26T10:16:27.468Z,9.20
2023-03-26T10:19:15.600Z,10.20
2023-03-26T10:21:56.015Z,11.10
2023-03-26T10:24:40.903Z,12.10
2023-03-26T10:27:28.511Z,12.80
2023-03-26T10:30:32.212Z,13.30
2023-03-26T10:33:14.214Z,13.60
2023-03-26T10:36:18.237Z,13.90
2023-03-26T10:39:36.273Z,14.00
2023-03-26T10:42:37.768Z,14.20
2023-03-26T13:32:59.087Z,13.30
2023-03-26T13:35:32.789Z,12.60
2023-03-26T13:38:07.512Z,12.50
2023-03-26T13:40:44.900Z,12.40
2023-03-26T13:43:31.028Z,12.50
2023-03-26T13:46:07.027Z,12.60
2023-03-26T13:48:40.497Z,12.60
2023-03-26T13:51:14.579Z,12.60
2023-03-26T13:53:47.503Z,12.70
2023-03-26T13:56:20.692Z,12.70
2023-03-26T13:58:55.684Z,12.80
2023-03-26T14:01:35.102Z,12.80
2023-03-26T14:04:22.959Z,12.80
2023-03-26T15:09:50.729Z,11.30
2023-03-26T15:12:32.840Z,11.50
2023-03-26T15:15:36.076Z,11.70
2023-03-26T15:18:52.203Z,11.80
2023-03-26T15:26:01.126Z,11.90
2023-03-26T15:29:03.932Z,12.00
2023-03-26T15:32:12.270Z,12.10
2023-03-26T15:35:12.461Z,12.10
2023-03-26T15:38:18.308Z,12.30
2023-03-26T15:41:06.448Z,12.50
2023-03-26T15:44:23.925Z,12.60
2023-03-26T15:47:03.220Z,12.60
2023-03-26T15:49:38.032Z,12.60
2023-03-26T15:52:19.028Z,12.50
2023-03-26T15:54:54.408Z,12.50
2023-03-26T15:57:32.015Z,12.40
2023-03-26T16:00:23.330Z,12.40
2023-03-26T16:03:13.103Z,12.40
2023-03-26T16:06:04.037Z,12.30
2023-03-26T16:08:39.040Z,12.10
2023-03-26T16:11:12.636Z,12.00
2023-03-26T16:13:44.956Z,12.00
2023-03-26T16:16:25.949Z,12.00
2023-03-26T16:19:00.608Z,11.90
2023-03-26T16:21:54.524Z,11.90
2023-03-26T16:24:27.644Z,12.00
2023-03-26T16:27:10.695Z,12.00
2023-03-26T16:30:09.605Z,12.00
2023-03-26T16:32:42.620Z,11.90
2023-03-26T16:35:42.746Z,11.80
2023-03-26T16:38:16.222Z,11.70
2023-03-26T16:41:04.721Z,11.60
2023-03-26T16:43:55.330Z,11.50
2023-03-26T16:46:44.994Z,11.40
2023-03-26T16:49:42.715Z,11.40
2023-03-26T16:52:26.686Z,11.30
2023-03-26T16:55:05.467Z,11.30
2023-03-26T16:57:42.997Z,11.20
2023-03-26T17:00:32.606Z,11.20
2023-03-26T17:03:34.921Z,11.10
2023-03-26T17:06:25.417Z,11.20
2023-03-26T17:09:02.850Z,11.20
2023-03-26T17:11:44.332Z,11.20
2023-03-26T17:14:28.079Z,11.10
2023-03-26T17:17:13.660Z,11.20
2023-03-26T17:19:53.029Z,11.10
2023-03-26T17:22:48.891Z,11.10
2023-03-26T17:25:36.115Z,11.10
2023-03-26T17:28:58.053Z,11.10
2023-03-26T17:31:38.460Z,11.00
2023-03-26T17:34:46.731Z,10.90
2023-03-26T17:37:48.318Z,10.90
2023-03-26T17:40:49.241Z,10.80
2023-03-26T17:43:42.842Z,10.70
2023-03-26T17:46:43.634Z,10.70
2023-03-26T17:49:25.953Z,10.60
2023-03-26T17:52:01.295Z,10.60
2023-03-26T17:54:44.103Z,10.60
2023-03-26T17:57:17.979Z,10.60
2023-03-26T17:59:47.570Z,10.70
2023-03-26T18:02:19.017Z,10.70
2023-03-26T18:04:51.200Z,10.70
2023-03-26T18:07:48.452Z,10.70
2023-03-26T18:10:35.224Z,10.70
2023-03-26T18:13:35.824Z,10.70
2023-03-26T18:16:14.442Z,10.60
2023-03-26T18:18:49.929Z,10.50
2023-03-26T18:21:31.864Z,10.40
2023-03-26T18:24:02.595Z,10.40
2023-03-26T18:26:39.615Z,10.30
2023-03-26T18:29:17.810Z,10.20
2023-03-26T18:31:48.010Z,10.10
2023-03-26T18:34:19.539Z,10.10
2023-03-26T18:36:54.350Z,10.00
2023-03-26T18:39:23.126Z,10.00
2023-03-26T18:41:53.402Z,10.00
2023-03-26T18:44:22.811Z,10.00
2023-03-26T18:46:55.020Z,9.90
2023-03-26T18:49:27.650Z,9.90
2023-03-26T18:51:57.893Z,9.90
2023-03-26T18:54:30.887Z,9.80
2023-03-26T18:57:15.511Z,9.80
2023-03-26T18:59:45.660Z,9.80
2023-03-26T19:02:16.553Z,9.70
2023-03-26T19:04:47.179Z,9.70
2023-03-26T19:07:50.864Z,9.70
2023-03-26T19:10:28.641Z,9.60
2023-03-26T19:13:00.636Z,9.60
2023-03-26T19:15:31.937Z,9.60
2023-03-26T19:18:07.470Z,9.50
2023-03-26T19:20:41.823Z,9.50
2023-03-26T19:23:14.922Z,9.40
2023-03-26T19:25:47.588Z,9.40
2023-03-26T19:28:22.010Z,9.40
2023-03-26T19:30:57.716Z,9.30
2023-03-26T19:33:35.155Z,9.30
2023-03-26T19:36:15.676Z,9.30
2023-03-26T19:38:50.622Z,9.20
2023-03-26T19:41:23.625Z,9.20
2023-03-26T19:43:56.165Z,9.20
2023-03-26T19:46:26.453Z,9.10
2023-03-26T19:48:56.636Z,9.10
2023-03-26T19:51:32.059Z,9.10
2023-03-26T19:54:03.981Z,9.00
2023-03-26T19:56:33.786Z,9.00
2023-03-26T19:59:05.313Z,9.00
2023-03-26T20:01:34.114Z,8.90
2023-03-26T20:04:06.394Z,8.90
2023-03-26T20:06:43.119Z,8.90
2023-03-26T20:09:13.838Z,8.90
2023-03-26T20:11:42.727Z,9.00
2023-03-26T20:14:19.958Z,8.90
2023-03-26T20:16:48.872Z,8.90
2023-03-26T20:19:17.920Z,8.90
2023-03-26T20:21:46.605Z,8.90
2023-03-26T20:24:17.618Z,8.90
2023-03-26T20:26:47.372Z,8.90
2023-03-26T20:29:17.919Z,8.90
2023-03-26T20:31:46.613Z,8.90
2023-03-26T20:34:19.238Z,9.00
2023-03-26T20:36:53.968Z,9.00
2023-03-26T20:39:23.553Z,8.90
2023-03-26T20:41:53.693Z,9.00
2023-03-26T20:44:26.891Z,9.00
2023-03-26T20:46:56.579Z,9.00
2023-03-26T20:49:25.240Z,9.00
2023-03-26T20:51:54.311Z,9.00
2023-03-26T20:54:24.590Z,9.00
2023-03-26T20:56:54.470Z,8.90
2023-03-26T20:59:27.890Z,9.00
2023-03-26T21:01:59.483Z,9.00
2023-03-26T21:04:28.737Z,9.00
2023-03-26T21:07:07.261Z,9.00
2023-03-26T21:09:45.016Z,9.00
2023-03-26T21:12:22.222Z,9.00
2023-03-26T21:14:55.819Z,9.00
2023-03-26T21:17:25.402Z,9.00
2023-03-26T21:19:56.205Z,9.10
2023-03-26T21:22:33.750Z,9.00
2023-03-26T21:25:10.422Z,9.10
2023-03-26T21:27:47.390Z,9.10
2023-03-26T21:30:18.095Z,9.10
2023-03-26T21:32:47.446Z,9.10
2023-03-26T21:35:17.225Z,9.10
2023-03-26T21:37:48.781Z,9.10
2023-03-26T21:40:18.676Z,9.10
2023-03-26T21:42:49.344Z,9.10
2023-03-26T21:45:20.701Z,9.10
2023-03-26T21:47:50.272Z,9.10
2023-03-26T21:50:20.750Z,9.10
2023-03-26T21:52:49.975Z,9.10
2023-03-26T21:55:20.160Z,9.10
2023-03-26T21:58:18.783Z,9.10
2023-03-26T22:01:00.980Z,9.10
2023-03-26T22:03:34.539Z,9.10
2023-03-26T22:06:07.669Z,9.10
2023-03-26T22:08:40.820Z,9.10
2023-03-26T22:11:13.400Z,9.10
2023-03-26T22:13:42.291Z,9.10
2023-03-26T22:16:12.521Z,9.10
2023-03-26T22:18:43.785Z,9.10
2023-03-26T22:21:12.805Z,9.10
2023-03-26T22:23:41.243Z,9.10
2023-03-26T22:26:09.703Z,9.10
2023-03-26T22:28:38.377Z,9.10
2023-03-26T22:31:08.673Z,9.10
2023-03-26T22:33:40.052Z,9.00
2023-03-26T22:36:23.224Z,9.10
2023-03-26T22:38:54.774Z,9.10
2023-03-26T22:41:23.741Z,9.10
2023-03-26T22:43:54.549Z,9.10
2023-03-26T22:46:23.660Z,9.10
2023-03-26T22:48:54.218Z,9.10
2023-03-26T22:51:22.738Z,9.10
2023-03-26T22:53:51.096Z,9.10
2023-03-26T22:56:19.571Z,9.10
2023-03-26T22:58:48.641Z,9.10
2023-03-26T23:01:19.251Z,9.10
2023-03-26T23:03:48.254Z,9.10
2023-03-26T23:06:18.208Z,9.10
2023-03-26T23:08:46.688Z,9.10
2023-03-26T23:11:17.228Z,9.10
2023-03-26T23:13:46.418Z,9.10
2023-03-26T23:16:15.655Z,9.10
2023-03-26T23:18:44.567Z,9.10
2023-03-26T23:21:16.027Z,9.10
2023-03-26T23:23:46.963Z,9.10
2023-03-26T23:26:16.274Z,9.10
2023-03-26T23:28:44.894Z,9.10
2023-03-26T23:31:14.027Z,9.00
2023-03-26T23:33:45.934Z,9.10
2023-03-26T23:36:17.770Z,9.10
2023-03-26T23:38:49.342Z,9.10
2023-03-26T23:41:21.652Z,9.10
2023-03-26T23:43:55.504Z,9.10
2023-03-26T23:46:30.975Z,9.10
2023-03-26T23:49:02.566Z,9.10
2023-03-26T23:51:32.005Z,9.10
2023-03-26T23:54:02.404Z,9.10
2023-03-26T23:56:31.848Z,9.20
2023-03-26T23:59:00.686Z,9.10
